createdAt,value
2017-10-21T00:00:48.306Z,18.30
2017-10-21T00:03:15.765Z,18.30
2017-10-21T00:05:43.986Z,18.30
2017-10-21T00:08:11.470Z,18.30
2017-10-21T00:10:38.938Z,18.20
2017-10-21T00:13:06.395Z,18.20
2017-10-21T00:15:33.850Z,18.30
2017-10-21T00:18:01.315Z,18.30
2017-10-21T00:20:28.769Z,18.30
2017-10-21T00:22:56.282Z,18.30
2017-10-21T00:25:23.747Z,18.20
2017-10-21T00:27:51.203Z,18.20
2017-10-21T00:30:18.662Z,18.20
2017-10-21T00:32:46.133Z,18.20
2017-10-21T00:35:13.617Z,18.20
2017-10-21T00:37:41.076Z,18.10
2017-10-21T00:40:08.530Z,18.20
2017-10-21T00:42:35.994Z,18.20
2017-10-21T00:45:03.446Z,18.30
2017-10-21T00:47:30.900Z,18.20
2017-10-21T00:49:58.345Z,18.10
2017-10-21T00:52:25.801Z,18.10
2017-10-21T00:54:53.273Z,18.20
2017-10-21T00:57:20.727Z,18.20
2017-10-21T00:59:48.181Z,18.20
2017-10-21T01:02:17.545Z,18.20
2017-10-21T01:04:45.762Z,18.20
2017-10-21T01:07:13.974Z,18.10
2017-10-21T01:09:42.201Z,18.10
2017-10-21T01:12:09.669Z,18.10
2017-10-21T01:14:37.134Z,18.10
2017-10-21T01:17:04.587Z,18.10
2017-10-21T01:19:32.062Z,18.10
2017-10-21T01:21:59.537Z,18.10
2017-10-21T01:24:27.928Z,18.10
2017-10-21T01:26:56.156Z,18.10
2017-10-21T01:29:23.610Z,18.10
2017-10-21T01:31:51.060Z,18.10
2017-10-21T01:34:18.514Z,18.10
2017-10-21T01:36:45.994Z,18.10
2017-10-21T01:39:13.458Z,18.10
2017-10-21T01:41:40.948Z,18.10
2017-10-21T01:44:09.166Z,18.10
2017-10-21T01:46:36.618Z,18.10
2017-10-21T01:49:04.079Z,18.10
2017-10-21T01:51:31.535Z,18.10
2017-10-21T01:53:59.000Z,18.10
2017-10-21T01:56:27.244Z,18.10
2017-10-21T01:58:54.693Z,18.10
2017-10-21T02:01:22.182Z,18.10
2017-10-21T02:03:49.638Z,18.10
2017-10-21T02:06:17.094Z,18.10
2017-10-21T02:08:44.555Z,18.00
2017-10-21T02:11:12.010Z,18.00
2017-10-21T02:13:39.474Z,18.00
2017-10-21T02:16:06.950Z,18.00
2017-10-21T02:18:34.394Z,18.00
2017-10-21T02:21:01.842Z,18.00
2017-10-21T02:23:29.305Z,18.00
2017-10-21T02:25:56.754Z,18.00
2017-10-21T02:28:24.208Z,18.00
2017-10-21T02:30:51.663Z,18.00
2017-10-21T02:33:19.125Z,18.00
2017-10-21T02:35:46.577Z,18.10
2017-10-21T02:38:14.090Z,18.10
2017-10-21T02:40:41.546Z,18.00
2017-10-21T02:43:09.038Z,18.10
2017-10-21T02:45:36.512Z,18.00
2017-10-21T02:48:03.966Z,18.00
2017-10-21T02:50:31.423Z,18.00
2017-10-21T02:52:58.891Z,18.00
2017-10-21T02:55:26.333Z,18.00
2017-10-21T02:57:53.799Z,17.90
2017-10-21T03:00:21.271Z,18.00
2017-10-21T03:02:49.499Z,18.00
2017-10-21T03:05:17.731Z,18.00
2017-10-21T03:07:45.178Z,18.00
2017-10-21T03:10:12.637Z,17.90
2017-10-21T03:12:40.099Z,18.00
2017-10-21T03:15:07.556Z,18.00
2017-10-21T03:17:35.777Z,17.90
2017-10-21T03:20:04.014Z,17.90
2017-10-21T03:22:32.238Z,17.90
2017-10-21T03:24:59.701Z,17.90
2017-10-21T03:27:27.149Z,17.90
2017-10-21T03:29:54.624Z,17.90
2017-10-21T03:32:22.066Z,17.90
2017-10-21T03:34:49.535Z,17.80
2017-10-21T03:37:16.987Z,17.90
2017-10-21T03:39:44.458Z,17.80
2017-10-21T03:42:11.914Z,17.80
2017-10-21T03:44:39.374Z,17.80
2017-10-21T03:47:06.830Z,17.80
2017-10-21T03:49:34.265Z,17.80
2017-10-21T03:52:01.721Z,17.80
2017-10-21T03:54:29.162Z,17.80
2017-10-21T03:56:57.394Z,17.80
2017-10-21T03:59:25.608Z,17.80
2017-10-21T04:01:53.863Z,17.70
2017-10-21T04:04:21.744Z,17.70
2017-10-21T04:06:49.204Z,17.80
2017-10-21T04:09:16.661Z,17.70
2017-10-21T04:11:44.121Z,17.70
2017-10-21T04:14:11.574Z,17.70
2017-10-21T04:16:39.034Z,17.70
2017-10-21T04:19:07.269Z,17.70
2017-10-21T04:21:34.805Z,17.70
2017-10-21T04:24:02.258Z,17.70
2017-10-21T04:26:29.717Z,17.70
2017-10-21T04:28:57.171Z,17.70
2017-10-21T04:31:24.632Z,17.70
2017-10-21T04:33:52.848Z,17.60
2017-10-21T04:36:20.320Z,17.60
2017-10-21T04:38:47.778Z,17.60
2017-10-21T04:41:15.249Z,17.60
2017-10-21T04:43:43.485Z,17.60
2017-10-21T04:46:10.946Z,17.60
2017-10-21T04:48:38.454Z,17.60
2017-10-21T04:51:06.672Z,17.60
2017-10-21T04:53:34.128Z,17.60
2017-10-21T04:56:01.615Z,17.60
2017-10-21T04:58:29.830Z,17.50
2017-10-21T05:00:57.295Z,17.50
2017-10-21T05:03:24.770Z,17.60
2017-10-21T05:05:52.227Z,17.60
2017-10-21T05:08:19.683Z,17.60
2017-10-21T05:10:47.186Z,17.60
2017-10-21T05:13:14.657Z,17.60
2017-10-21T05:15:42.911Z,17.50
2017-10-21T05:18:10.375Z,17.50
2017-10-21T05:20:37.829Z,17.60
2017-10-21T05:23:05.299Z,17.50
2017-10-21T05:25:32.746Z,17.50
2017-10-21T05:28:00.240Z,17.50
2017-10-21T05:30:27.725Z,17.50
2017-10-21T05:32:55.176Z,17.40
2017-10-21T05:35:22.632Z,17.50
2017-10-21T05:37:50.102Z,17.50
2017-10-21T05:40:17.609Z,17.50
2017-10-21T05:42:45.834Z,17.40
2017-10-21T05:45:13.298Z,17.50
2017-10-21T05:47:40.785Z,17.50
2017-10-21T05:50:08.267Z,17.40
2017-10-21T05:52:35.742Z,17.40
2017-10-21T05:55:03.210Z,17.40
2017-10-21T05:57:30.685Z,17.40
2017-10-21T05:59:58.163Z,17.40
2017-10-21T06:02:25.619Z,17.40
2017-10-21T06:04:53.101Z,17.40
2017-10-21T06:07:21.328Z,17.40
2017-10-21T06:09:49.554Z,17.40
2017-10-21T06:12:17.030Z,17.40
2017-10-21T06:14:44.486Z,17.40
2017-10-21T06:17:11.949Z,17.40
2017-10-21T06:19:39.402Z,17.40
2017-10-21T06:22:06.863Z,17.40
2017-10-21T06:24:34.326Z,17.30
2017-10-21T06:27:01.791Z,17.30
2017-10-21T06:29:29.246Z,17.30
2017-10-21T06:31:56.734Z,17.40
2017-10-21T06:34:24.170Z,17.40
2017-10-21T06:36:51.658Z,17.40
2017-10-21T06:39:19.095Z,17.30
2017-10-21T06:41:46.582Z,17.30
2017-10-21T06:44:14.034Z,17.30
2017-10-21T06:46:42.291Z,17.40
2017-10-21T06:49:09.759Z,17.40
2017-10-21T06:51:37.221Z,17.40
2017-10-21T06:54:04.679Z,17.40
2017-10-21T06:56:32.141Z,17.40
2017-10-21T06:58:59.598Z,17.40
2017-10-21T07:01:27.082Z,17.40
2017-10-21T07:03:55.301Z,17.40
2017-10-21T07:06:22.759Z,17.40
2017-10-21T07:08:50.228Z,17.40
2017-10-21T07:11:17.670Z,17.40
2017-10-21T07:13:45.131Z,17.40
2017-10-21T07:16:12.609Z,17.40
2017-10-21T07:18:40.112Z,17.40
2017-10-21T07:21:07.601Z,17.40
2017-10-21T07:23:35.082Z,17.50
2017-10-21T07:26:02.518Z,17.50
2017-10-21T07:28:29.998Z,17.50
2017-10-21T07:30:58.234Z,17.50
2017-10-21T07:33:25.686Z,17.50
2017-10-21T07:35:53.134Z,17.50
2017-10-21T07:38:20.612Z,17.60
2017-10-21T07:40:48.083Z,17.60
2017-10-21T07:43:15.562Z,17.60
2017-10-21T07:45:43.062Z,17.60
2017-10-21T07:48:10.550Z,17.60
2017-10-21T07:50:37.999Z,17.70
2017-10-21T07:53:05.441Z,17.70
2017-10-21T07:55:32.946Z,17.70
2017-10-21T07:58:00.470Z,17.70
2017-10-21T08:00:27.931Z,17.70
2017-10-21T08:02:55.395Z,17.60
2017-10-21T08:05:22.849Z,17.70
2017-10-21T08:07:50.300Z,17.70
2017-10-21T08:10:17.777Z,17.70
2017-10-21T08:12:46.014Z,17.70
2017-10-21T08:15:13.480Z,17.70
2017-10-21T08:17:40.918Z,17.70
2017-10-21T08:20:08.374Z,17.70
2017-10-21T08:22:36.633Z,17.80
2017-10-21T08:25:04.859Z,17.70
2017-10-21T08:27:32.319Z,17.70
2017-10-21T08:29:59.792Z,17.80
2017-10-21T08:32:27.249Z,17.90
2017-10-21T08:34:54.730Z,17.90
2017-10-21T08:40:14.583Z,18.00
2017-10-21T08:42:42.046Z,18.00
2017-10-21T08:45:09.554Z,18.10
2017-10-21T08:47:37.785Z,18.20
2017-10-21T08:50:05.283Z,18.20
2017-10-21T08:52:32.754Z,18.30
2017-10-21T08:55:01.005Z,18.40
2017-10-21T08:57:28.456Z,18.30
2017-10-21T08:59:55.915Z,18.40
2017-10-21T09:02:23.373Z,18.40
2017-10-21T09:04:50.846Z,18.30
2017-10-21T09:07:18.305Z,18.20
2017-10-21T09:09:45.809Z,18.20
2017-10-21T09:12:13.279Z,18.20
2017-10-21T09:14:40.734Z,18.20
2017-10-21T09:17:08.220Z,18.20
2017-10-21T09:19:35.678Z,18.20
2017-10-21T09:22:03.150Z,18.20
2017-10-21T09:24:30.616Z,18.30
2017-10-21T09:26:58.858Z,18.30
2017-10-21T09:29:26.323Z,18.30
2017-10-21T09:31:54.544Z,18.50
2017-10-21T09:34:21.998Z,18.50
2017-10-21T09:36:49.585Z,18.50
2017-10-21T09:39:17.043Z,18.50
2017-10-21T09:41:44.502Z,18.60
2017-10-21T09:44:12.008Z,18.60
2017-10-21T09:46:39.480Z,18.60
2017-10-21T09:49:07.711Z,18.60
2017-10-21T09:51:37.087Z,18.60
2017-10-21T09:54:04.543Z,18.60
2017-10-21T09:56:32.606Z,18.50
2017-10-21T09:59:00.058Z,18.40
2017-10-21T10:01:28.330Z,18.40
2017-10-21T10:03:55.782Z,18.40
2017-10-21T10:06:23.246Z,18.40
2017-10-21T10:08:50.694Z,18.40
2017-10-21T10:11:18.950Z,18.30
2017-10-21T10:13:46.402Z,18.30
2017-10-21T10:16:13.859Z,18.30
2017-10-21T10:18:41.345Z,18.30
2017-10-21T10:21:09.597Z,18.30
2017-10-21T10:23:37.050Z,18.30
2017-10-21T10:26:04.531Z,18.30
2017-10-21T10:28:32.009Z,18.30
2017-10-21T10:30:59.470Z,18.20
2017-10-21T10:33:26.959Z,18.30
2017-10-21T10:35:54.439Z,18.20
2017-10-21T10:38:21.894Z,18.20
2017-10-21T10:40:49.350Z,18.20
2017-10-21T10:43:16.814Z,18.30
2017-10-21T10:45:44.279Z,18.30
2017-10-21T10:48:12.502Z,18.40
2017-10-21T10:50:39.962Z,18.40
2017-10-21T10:53:07.447Z,18.40
2017-10-21T10:55:34.894Z,18.30
2017-10-21T10:58:02.387Z,18.30
2017-10-21T11:00:30.631Z,18.30
2017-10-21T11:02:58.099Z,18.30
2017-10-21T11:05:25.606Z,18.30
2017-10-21T11:07:53.057Z,18.30
2017-10-21T11:10:21.335Z,18.50
2017-10-21T11:12:48.782Z,19.40
2017-10-21T11:15:16.253Z,19.80
2017-10-21T11:17:43.699Z,20.10
2017-10-21T11:20:11.159Z,20.30
2017-10-21T11:22:38.611Z,20.40
2017-10-21T11:25:06.878Z,20.60
2017-10-21T11:27:35.077Z,20.70
2017-10-21T11:30:02.530Z,20.60
2017-10-21T11:32:29.989Z,20.70
2017-10-21T11:34:57.506Z,20.70
2017-10-21T11:37:24.970Z,20.80
2017-10-21T11:39:52.445Z,20.90
2017-10-21T11:42:19.890Z,20.20
2017-10-21T11:44:47.355Z,19.50
2017-10-21T11:47:14.812Z,18.90
2017-10-21T11:49:42.282Z,18.60
2017-10-21T11:52:09.747Z,18.40
2017-10-21T11:54:37.222Z,18.30
2017-10-21T11:57:04.664Z,18.20
2017-10-21T11:59:32.117Z,18.20
2017-10-21T12:02:00.487Z,18.10
2017-10-21T12:04:28.721Z,17.80
2017-10-21T12:06:56.173Z,17.70
2017-10-21T12:09:23.658Z,17.70
2017-10-21T12:11:51.914Z,17.60
2017-10-21T12:14:19.390Z,17.60
2017-10-21T12:16:47.614Z,17.50
2017-10-21T12:19:15.086Z,17.50
2017-10-21T12:21:42.559Z,17.40
2017-10-21T12:24:10.011Z,17.40
2017-10-21T12:26:37.504Z,17.40
2017-10-21T12:29:05.732Z,17.40
2017-10-21T12:31:33.195Z,17.30
2017-10-21T12:34:00.706Z,17.40
2017-10-21T12:36:28.931Z,17.50
2017-10-21T12:38:56.403Z,17.50
2017-10-21T12:41:23.889Z,17.70
2017-10-21T12:43:52.169Z,18.10
2017-10-21T12:46:20.427Z,18.00
2017-10-21T12:48:47.882Z,18.00
2017-10-21T12:51:15.386Z,18.00
2017-10-21T12:53:43.052Z,18.00
2017-10-21T12:56:10.538Z,18.00
2017-10-21T12:58:38.016Z,18.10
2017-10-21T13:01:05.471Z,18.10
2017-10-21T13:03:32.942Z,18.10
2017-10-21T13:06:01.187Z,18.10
2017-10-21T13:08:28.659Z,18.10
2017-10-21T13:10:56.113Z,18.10
2017-10-21T13:13:23.575Z,18.10
2017-10-21T13:15:51.790Z,18.10
2017-10-21T13:18:19.242Z,18.10
2017-10-21T13:20:46.689Z,18.10
2017-10-21T13:23:14.146Z,18.10
2017-10-21T13:25:42.373Z,18.10
2017-10-21T13:28:09.826Z,18.00
2017-10-21T13:30:38.043Z,18.00
2017-10-21T13:33:06.283Z,18.10
2017-10-21T13:35:33.737Z,18.00
2017-10-21T13:38:01.198Z,18.00
2017-10-21T13:40:28.664Z,18.00
2017-10-21T13:42:56.131Z,18.00
2017-10-21T13:45:23.607Z,18.00
2017-10-21T13:47:51.950Z,18.00
2017-10-21T13:50:19.503Z,17.90
2017-10-21T13:52:47.084Z,18.00
2017-10-21T13:55:15.595Z,18.00
2017-10-21T13:57:43.321Z,18.00
2017-10-21T14:00:10.963Z,18.00
2017-10-21T14:02:39.396Z,18.00
2017-10-21T14:05:06.951Z,18.00
2017-10-21T14:07:34.516Z,18.10
2017-10-21T14:10:02.226Z,18.10
2017-10-21T14:12:30.504Z,18.30
2017-10-21T14:14:57.962Z,18.30
2017-10-21T14:17:25.426Z,18.40
2017-10-21T14:19:52.884Z,18.60
2017-10-21T14:22:20.377Z,18.90
2017-10-21T14:24:48.618Z,20.00
2017-10-21T14:27:16.075Z,20.00
2017-10-21T14:29:43.543Z,20.20
2017-10-21T14:32:11.014Z,20.10
2017-10-21T14:34:38.463Z,19.90
2017-10-21T14:37:05.922Z,19.70
2017-10-21T14:39:33.390Z,19.80
2017-10-21T14:42:00.871Z,20.40
2017-10-21T14:44:28.423Z,20.60
2017-10-21T14:46:56.646Z,20.90
2017-10-21T14:49:24.175Z,20.90
2017-10-21T14:51:51.625Z,20.80
2017-10-21T14:54:19.145Z,20.60
2017-10-21T14:56:49.382Z,20.40
2017-10-21T14:59:17.277Z,20.10
2017-10-21T15:01:45.326Z,20.00
2017-10-21T15:04:13.795Z,19.50
2017-10-21T15:06:43.672Z,19.30
2017-10-21T15:09:11.397Z,19.30
2017-10-21T15:11:39.222Z,19.20
2017-10-21T15:14:07.514Z,19.00
2017-10-21T15:16:35.292Z,19.00
2017-10-21T15:19:02.810Z,19.00
2017-10-21T15:21:30.368Z,19.00
2017-10-21T15:23:57.832Z,18.90
2017-10-21T15:26:25.303Z,18.90
2017-10-21T15:28:52.755Z,18.90
2017-10-21T15:31:20.210Z,18.80
2017-10-21T15:33:47.679Z,18.80
2017-10-21T15:36:15.150Z,18.90
2017-10-21T15:38:42.602Z,18.90
2017-10-21T15:41:10.050Z,19.10
2017-10-21T15:43:37.511Z,19.30
2017-10-21T15:46:04.979Z,19.40
2017-10-21T15:48:32.435Z,19.50
2017-10-21T15:50:59.915Z,19.50
2017-10-21T15:53:27.383Z,19.40
2017-10-21T15:55:54.830Z,19.30
2017-10-21T15:58:22.331Z,19.20
2017-10-21T16:00:49.783Z,19.10
2017-10-21T16:03:17.259Z,18.90
2017-10-21T16:05:45.470Z,18.90
2017-10-21T16:08:12.935Z,18.80
2017-10-21T16:10:40.407Z,18.80
2017-10-21T16:13:08.699Z,18.60
2017-10-21T16:15:36.156Z,18.60
2017-10-21T16:18:03.628Z,18.60
2017-10-21T16:20:31.081Z,18.60
2017-10-21T16:22:58.547Z,18.60
2017-10-21T16:25:25.994Z,18.50
2017-10-21T16:27:53.475Z,18.50
2017-10-21T16:30:20.932Z,18.60
2017-10-21T16:32:48.391Z,18.50
2017-10-21T16:35:15.847Z,18.70
2017-10-21T16:37:43.303Z,18.70
2017-10-21T16:40:10.763Z,18.60
2017-10-21T16:42:38.207Z,18.60
2017-10-21T16:45:05.676Z,18.50
2017-10-21T16:47:33.178Z,18.50
2017-10-21T16:50:01.412Z,18.90
2017-10-21T16:52:30.389Z,18.90
2017-10-21T16:54:57.862Z,18.90
2017-10-21T16:57:25.331Z,18.90
2017-10-21T16:59:52.817Z,18.90
2017-10-21T17:02:21.127Z,18.80
2017-10-21T17:04:48.594Z,18.80
2017-10-21T17:07:16.102Z,18.70
2017-10-21T17:09:43.614Z,18.70
2017-10-21T17:12:12.644Z,18.60
2017-10-21T17:14:40.111Z,18.60
2017-10-21T17:17:07.580Z,18.50
2017-10-21T17:19:35.135Z,18.50
2017-10-21T17:22:03.488Z,18.50
2017-10-21T17:24:31.172Z,18.50
2017-10-21T17:26:58.635Z,18.40
2017-10-21T17:29:26.235Z,18.40
2017-10-21T17:31:54.464Z,18.30
2017-10-21T17:34:22.734Z,18.20
2017-10-21T17:36:50.267Z,18.20
2017-10-21T17:39:17.747Z,18.20
2017-10-21T17:41:45.991Z,18.10
2017-10-21T17:44:13.459Z,18.10
2017-10-21T17:46:40.961Z,18.10
2017-10-21T17:49:08.423Z,18.00
2017-10-21T17:51:35.918Z,18.00
2017-10-21T17:54:03.373Z,18.00
2017-10-21T17:56:30.854Z,18.00
2017-10-21T17:58:58.331Z,17.90
2017-10-21T18:01:26.617Z,17.90
2017-10-21T18:03:54.859Z,17.90
2017-10-21T18:06:22.353Z,17.90
2017-10-21T18:08:50.594Z,17.90
2017-10-21T18:11:18.066Z,17.90
2017-10-21T18:13:45.522Z,17.90
2017-10-21T18:16:12.987Z,18.00
2017-10-21T18:18:41.229Z,17.90
2017-10-21T18:21:08.683Z,17.90
2017-10-21T18:23:36.146Z,17.90
2017-10-21T18:26:03.610Z,17.90
2017-10-21T18:28:31.080Z,17.90
2017-10-21T18:30:58.606Z,17.90
2017-10-21T18:33:26.086Z,17.90
2017-10-21T18:35:53.533Z,17.90
2017-10-21T18:38:21.007Z,17.80
2017-10-21T18:40:48.467Z,17.80
2017-10-21T18:43:15.928Z,17.80
2017-10-21T18:45:44.890Z,17.80
2017-10-21T18:48:12.359Z,17.80
2017-10-21T18:50:39.825Z,17.80
2017-10-21T18:53:07.287Z,17.80
2017-10-21T18:55:34.778Z,17.70
2017-10-21T18:58:02.215Z,17.70
2017-10-21T19:00:29.666Z,17.70
2017-10-21T19:02:57.149Z,17.70
2017-10-21T19:05:25.384Z,17.70
2017-10-21T19:07:52.846Z,17.70
2017-10-21T19:10:20.305Z,17.70
2017-10-21T19:12:47.782Z,17.70
2017-10-21T19:15:16.010Z,17.60
2017-10-21T19:17:43.475Z,17.60
2017-10-21T19:20:11.023Z,17.60
2017-10-21T19:22:38.478Z,17.60
2017-10-21T19:25:05.941Z,17.60
2017-10-21T19:27:33.398Z,17.60
2017-10-21T19:30:00.894Z,17.60
2017-10-21T19:32:28.352Z,17.60
2017-10-21T19:34:55.805Z,17.60
2017-10-21T19:37:24.059Z,17.50
2017-10-21T19:39:51.533Z,17.50
2017-10-21T19:42:18.978Z,17.50
2017-10-21T19:44:46.448Z,17.50
2017-10-21T19:47:13.902Z,17.50
2017-10-21T19:49:41.366Z,17.50
2017-10-21T19:52:09.601Z,17.50
2017-10-21T19:54:37.827Z,17.50
2017-10-21T19:57:05.290Z,17.50
2017-10-21T19:59:33.515Z,17.40
2017-10-21T20:02:00.979Z,17.40
2017-10-21T20:04:28.427Z,17.40
2017-10-21T20:06:55.889Z,17.40
2017-10-21T20:09:23.354Z,17.40
2017-10-21T20:11:50.814Z,17.40
2017-10-21T20:14:18.270Z,17.40
2017-10-21T20:16:45.733Z,17.40
2017-10-21T20:19:13.187Z,17.40
2017-10-21T20:21:40.646Z,17.40
2017-10-21T20:24:08.106Z,17.40
2017-10-21T20:26:36.330Z,17.30
2017-10-21T20:29:03.796Z,17.30
2017-10-21T20:31:31.274Z,17.30
2017-10-21T20:33:58.730Z,17.30
2017-10-21T20:36:26.203Z,17.30
2017-10-21T20:38:54.430Z,17.30
2017-10-21T20:41:22.650Z,17.30
2017-10-21T20:43:50.111Z,17.30
2017-10-21T20:46:17.603Z,17.20
2017-10-21T20:48:45.063Z,17.20
2017-10-21T20:51:12.514Z,17.20
2017-10-21T20:53:40.006Z,17.20
2017-10-21T20:56:08.230Z,17.20
2017-10-21T20:58:35.686Z,17.20
2017-10-21T21:01:03.159Z,17.20
2017-10-21T21:03:30.618Z,17.20
2017-10-21T21:05:58.077Z,17.20
2017-10-21T21:08:25.535Z,17.20
2017-10-21T21:10:52.995Z,17.20
2017-10-21T21:13:20.450Z,17.10
2017-10-21T21:15:47.906Z,17.10
2017-10-21T21:18:15.368Z,17.10
2017-10-21T21:20:42.818Z,17.10
2017-10-21T21:23:11.056Z,17.10
2017-10-21T21:25:39.266Z,17.10
2017-10-21T21:28:06.727Z,17.00
2017-10-21T21:30:34.190Z,17.10
2017-10-21T21:33:01.654Z,17.00
2017-10-21T21:35:29.111Z,17.00
2017-10-21T21:37:57.329Z,17.00
2017-10-21T21:40:24.787Z,17.00
2017-10-21T21:42:52.258Z,17.00
2017-10-21T21:45:19.711Z,17.00
2017-10-21T21:47:47.190Z,17.00
2017-10-21T21:50:14.651Z,17.00
2017-10-21T21:52:42.103Z,17.00
2017-10-21T21:55:09.571Z,17.00
2017-10-21T21:57:37.039Z,16.90
2017-10-21T22:00:04.491Z,17.00
2017-10-21T22:02:31.950Z,17.00
2017-10-21T22:04:59.414Z,16.90
2017-10-21T22:07:26.858Z,16.90
2017-10-21T22:09:54.321Z,17.00
2017-10-21T22:12:21.779Z,17.00
2017-10-21T22:14:49.243Z,16.90
2017-10-21T22:17:16.705Z,17.00
2017-10-21T22:19:44.151Z,17.00
2017-10-21T22:22:11.610Z,17.00
2017-10-21T22:24:39.067Z,17.00
2017-10-21T22:27:06.547Z,17.00
2017-10-21T22:29:34.794Z,17.00
2017-10-21T22:32:02.250Z,16.90
2017-10-21T22:34:29.810Z,17.00
2017-10-21T22:36:58.780Z,17.00
2017-10-21T22:39:26.268Z,17.00
2017-10-21T22:41:53.722Z,17.00
2017-10-21T22:44:21.179Z,17.00
2017-10-21T22:46:48.630Z,17.00
2017-10-21T22:49:16.093Z,17.00
2017-10-21T22:51:43.545Z,17.00
2017-10-21T22:54:10.994Z,17.00
2017-10-21T22:56:38.471Z,16.90
2017-10-21T22:59:05.939Z,16.90
2017-10-21T23:01:34.167Z,16.90
2017-10-21T23:04:01.624Z,16.90
2017-10-21T23:06:29.078Z,16.80
2017-10-21T23:08:58.455Z,16.80
2017-10-21T23:11:25.935Z,16.80
2017-10-21T23:13:53.390Z,16.80
2017-10-21T23:16:20.862Z,16.90
2017-10-21T23:18:48.314Z,16.80
2017-10-21T23:21:15.779Z,16.90
2017-10-21T23:23:43.247Z,16.90
2017-10-21T23:26:10.719Z,16.90
2017-10-21T23:28:38.175Z,16.90
2017-10-21T23:31:05.643Z,16.90
2017-10-21T23:33:33.095Z,16.90
2017-10-21T23:36:00.553Z,16.90
2017-10-21T23:38:28.771Z,16.80
2017-10-21T23:40:56.246Z,16.70
2017-10-21T23:43:23.702Z,16.80
2017-10-21T23:45:51.167Z,16.80
2017-10-21T23:48:18.622Z,16.70
2017-10-21T23:50:46.087Z,16.80
2017-10-21T23:53:13.546Z,16.80
2017-10-21T23:55:40.994Z,16.80
2017-10-21T23:58:08.453Z,16.80
